Time;durP1;ratioP1;P1;durP2;ratioP2;P2;SDS_P1;SDS_P2;PMS_P1;PMS_P2;Temp;Humidity;BMP_temperature;BMP_pressure;BME280_temperature;BME280_humidity;BME280_pressure;Samples;Min_cycle;Max_cycle;Signal;HPM_P1;HPM_P2
2023/07/11 07:34:02;;;;;;;8.70;2.70;;;;;;;18.46;74.08;100267.53;4279841;27;20792;-69
2023/07/11 07:36:29;;;;;;;5.63;2.63;;;;;;;18.50;73.54;100257.00;4255321;28;20300;-65
2023/07/11 07:38:55;;;;;;;4.10;2.60;;;;;;;18.40;73.77;100267.47;4258386;28;20256;-72
2023/07/11 07:41:22;;;;;;;8.23;2.40;;;;;;;18.37;73.71;100261.38;4251739;28;20222;-74
2023/07/11 07:43:48;;;;;;;9.07;2.60;;;;;;;18.46;73.63;100264.78;4256828;28;20253;-70
2023/07/11 07:46:16;;;;;;;7.37;2.90;;;;;;;18.43;73.14;100262.44;4257062;28;22112;-75
2023/07/11 07:48:43;;;;;;;7.67;2.70;;;;;;;18.60;73.42;100275.81;4250897;28;20321;-72
2023/07/11 07:51:13;;;;;;;10.63;2.87;;;;;;;18.68;72.70;100272.88;4255530;28;20240;-71
2023/07/11 07:53:40;;;;;;;5.53;2.97;;;;;;;18.76;72.46;100280.09;4270002;28;20418;-71
2023/07/11 07:56:16;;;;;;;3.77;2.43;;;;;;;18.62;73.15;100274.53;4254405;28;21185;-73
2023/07/11 07:58:43;;;;;;;6.27;2.60;;;;;;;18.72;72.76;100278.81;4251872;28;20507;-73
2023/07/11 08:01:12;;;;;;;5.40;2.40;;;;;;;18.80;71.97;100286.84;4262728;28;20919;-76
2023/07/11 08:03:39;;;;;;;5.17;2.50;;;;;;;18.96;71.39;100288.41;4267302;28;20231;-64
2023/07/11 08:06:06;;;;;;;4.93;2.57;;;;;;;19.00;70.82;100281.47;4252074;28;20339;-64
2023/07/11 08:08:36;;;;;;;3.93;2.20;;;;;;;19.08;70.55;100288.66;4268571;28;20241;-65
2023/07/11 08:11:04;;;;;;;4.00;2.30;;;;;;;19.07;69.91;100290.56;4259122;28;20232;-67
2023/07/11 08:13:34;;;;;;;3.87;2.40;;;;;;;19.43;68.86;100297.59;4274453;28;20226;-66
2023/07/11 08:16:18;;;;;;;4.50;2.20;;;;;;;19.59;67.65;100299.09;4264917;28;20230;-66
2023/07/11 08:18:59;;;;;;;3.30;2.40;;;;;;;18.95;69.20;100300.44;4272137;28;20469;-66
2023/07/11 08:21:26;;;;;;;5.97;2.70;;;;;;;19.29;68.50;100313.22;4263978;28;20457;-66
2023/07/11 08:23:52;;;;;;;2.70;1.80;;;;;;;19.00;68.98;100306.16;4247284;28;20384;-66
2023/07/11 08:26:22;;;;;;;4.30;2.20;;;;;;;18.83;70.33;100302.91;4256728;28;22760;-65
2023/07/11 08:28:52;;;;;;;4.43;2.20;;;;;;;19.07;69.68;100307.03;4256986;28;22947;-67
2023/07/11 08:31:20;;;;;;;5.00;2.23;;;;;;;18.75;70.84;100309.41;4254528;28;21668;-66
2023/07/11 08:33:48;;;;;;;5.30;2.10;;;;;;;18.92;71.30;100311.81;4254841;28;20239;-67
2023/07/11 08:36:14;;;;;;;2.90;1.90;;;;;;;19.38;70.17;100310.25;4254959;28;20924;-67
2023/07/11 08:38:46;;;;;;;7.10;2.33;;;;;;;19.70;68.89;100310.50;4261439;28;20278;-64
2023/07/11 08:41:50;;;;;;;4.27;2.10;;;;;;;19.77;68.86;100311.34;4251690;28;20303;-66
2023/07/11 08:44:47;;;;;;;3.17;2.07;;;;;;;20.13;67.12;100312.81;4232787;28;20239;-67
2023/07/11 08:47:24;;;;;;;3.90;2.17;;;;;;;19.86;67.20;100312.00;4250082;28;21921;-65
2023/07/11 08:49:56;;;;;;;6.60;2.13;;;;;;;20.11;66.45;100315.78;4230101;28;20273;-65
2023/07/11 08:52:24;;;;;;;4.30;1.83;;;;;;;20.09;66.33;100312.38;4245878;28;20268;-64
2023/07/11 08:55:05;;;;;;;6.40;2.07;;;;;;;20.35;65.81;100327.16;4231473;28;22322;-66
2023/07/11 08:57:36;;;;;;;5.03;2.53;;;;;;;20.50;64.65;100324.19;4239654;28;21069;-66
2023/07/11 09:00:12;;;;;;;7.87;2.10;;;;;;;20.63;63.97;100328.75;4254913;28;20236;-67
2023/07/11 09:03:00;;;;;;;4.00;2.13;;;;;;;20.49;64.27;100330.72;4239729;28;20690;-64
2023/07/11 09:05:49;;;;;;;3.63;1.80;;;;;;;20.51;63.68;100328.59;4238826;28;21819;-68
2023/07/11 09:08:18;;;;;;;3.67;1.93;;;;;;;20.19;64.08;100319.38;4260490;28;20230;-68
2023/07/11 09:11:02;;;;;;;5.87;2.17;;;;;;;20.09;64.67;100330.78;4244151;28;21784;-68
2023/07/11 09:13:46;;;;;;;10.73;2.10;;;;;;;19.91;64.70;100332.28;4226559;28;20236;-67
2023/07/11 09:16:51;;;;;;;4.07;2.00;;;;;;;19.86;66.19;100336.75;4232402;28;20232;-67
2023/07/11 09:19:39;;;;;;;4.37;1.90;;;;;;;19.25;69.39;100339.38;4261678;28;20239;-69
2023/07/11 09:22:10;;;;;;;6.60;2.10;;;;;;;18.70;72.10;100339.34;4245258;28;20283;-65
2023/07/11 09:25:07;;;;;;;3.37;2.17;;;;;;;18.82;71.22;100334.13;4240328;28;21260;-66
2023/07/11 09:27:38;;;;;;;4.23;2.30;;;;;;;18.68;72.39;100339.56;4258806;28;22742;-67
2023/07/11 09:30:18;;;;;;;6.03;1.80;;;;;;;18.99;70.86;100334.63;4250328;28;22137;-65
2023/07/11 09:32:47;;;;;;;3.67;1.83;;;;;;;19.12;69.49;100331.09;4261271;28;20321;-65
2023/07/11 09:35:28;;;;;;;2.90;1.63;;;;;;;19.38;68.35;100329.44;4245680;28;20316;-66
2023/07/11 09:38:30;;;;;;;2.73;1.70;;;;;;;19.89;66.54;100320.69;4268672;28;20234;-66
2023/07/11 09:41:00;;;;;;;3.03;2.00;;;;;;;;;;4290237;28;21009;-67
2023/07/11 09:43:27;;;;;;;2.83;1.60;;;;;;;20.56;64.06;100316.94;4278316;28;20255;-66
2023/07/11 09:45:54;;;;;;;3.73;1.70;;;;;;;20.29;66.34;100310.66;4242019;28;21183;-66
2023/07/11 09:48:27;;;;;;;3.07;1.90;;;;;;;20.63;66.14;100314.19;4248945;28;20237;-67
2023/07/11 09:51:00;;;;;;;3.10;1.77;;;;;;;20.72;62.18;100300.00;4262795;28;23060;-66
2023/07/11 09:53:46;;;;;;;9.47;1.70;;;;;;;20.66;62.31;100298.09;4274713;28;20692;-68
2023/07/11 09:56:16;;;;;;;3.03;1.60;;;;;;;20.83;61.09;100290.22;4276339;28;20230;-68
2023/07/11 09:58:52;;;;;;;5.07;2.00;;;;;;;21.51;59.38;100291.47;4236309;28;21798;-65
2023/07/11 10:01:25;;;;;;;2.63;1.80;;;;;;;21.47;59.51;100292.16;4246340;28;20266;-66
2023/07/11 10:03:54;;;;;;;3.13;1.70;;;;;;;21.53;60.29;100292.13;4243330;28;20303;-66
2023/07/11 10:06:35;;;;;;;4.97;1.87;;;;;;;21.45;59.70;100294.31;4244325;28;20242;-69
2023/07/11 10:09:14;;;;;;;3.77;1.97;;;;;;;21.79;59.68;100292.97;4247832;28;20240;-64
2023/07/11 10:11:41;;;;;;;3.47;1.80;;;;;;;21.63;60.28;100297.16;4261199;28;22131;-65
2023/07/11 10:14:18;;;;;;;4.20;1.67;;;;;;;21.88;59.36;100292.69;4234070;28;20242;-65
2023/07/11 10:16:47;;;;;;;3.03;1.70;;;;;;;21.41;60.29;100288.41;4241059;28;20320;-67
2023/07/11 10:19:17;;;;;;;4.87;1.83;;;;;;;22.04;59.45;100297.63;4219876;28;20870;-65
2023/07/11 10:21:50;;;;;;;4.37;1.90;;;;;;;22.42;58.25;100288.34;4254511;28;22206;-66
2023/07/11 10:24:27;;;;;;;2.97;2.00;;;;;;;22.81;57.14;100285.31;4290613;28;20595;-67
2023/07/11 10:26:58;;;;;;;5.87;2.87;;;;;;;22.45;57.92;100289.81;4256346;28;20496;-68
2023/07/11 10:29:28;;;;;;;3.57;1.80;;;;;;;22.46;57.96;100285.97;4257947;28;20380;-65
2023/07/11 10:32:02;;;;;;;3.60;2.20;;;;;;;22.67;57.01;100289.34;4207600;28;22241;-67
2023/07/11 10:34:40;;;;;;;2.70;1.90;;;;;;;22.21;57.93;100289.59;4244914;28;20260;-66
2023/07/11 10:37:12;;;;;;;4.73;2.57;;;;;;;22.48;57.61;100283.84;4226860;28;21216;-66
2023/07/11 10:39:44;;;;;;;3.88;1.70;;;;;;;22.16;60.02;100278.44;4245141;28;20265;-68
2023/07/11 10:42:28;;;;;;;2.67;2.00;;;;;;;22.23;57.74;100286.66;4234426;28;20295;-65
2023/07/11 10:45:11;;;;;;;4.70;1.77;;;;;;;21.75;57.94;100275.22;4233795;28;20356;-48
2023/07/11 10:47:43;;;;;;;3.03;1.93;;;;;;;22.30;56.78;100273.63;4233928;28;20238;-48
2023/07/11 10:50:42;;;;;;;3.20;1.70;;;;;;;22.45;55.12;100270.50;4263058;28;20607;-48
2023/07/11 10:53:43;;;;;;;3.80;1.80;;;;;;;22.67;56.28;100262.59;4262538;28;20245;-48
2023/07/11 10:56:20;;;;;;;2.57;1.70;;;;;;;22.80;54.85;100269.88;4253864;28;20323;-48
2023/07/11 10:58:49;;;;;;;3.90;1.67;;;;;;;22.87;55.01;100276.16;4267612;28;21458;-46
2023/07/11 11:01:43;;;;;;;5.80;1.57;;;;;;;22.95;51.75;100275.81;4270198;28;21427;-51
2023/07/11 11:04:33;;;;;;;2.60;1.47;;;;;;;23.20;52.09;100262.97;4267922;28;20376;-50
2023/07/11 11:07:14;;;;;;;4.37;1.50;;;;;;;23.67;49.33;100271.34;4273843;28;20307;-49
2023/07/11 11:09:57;;;;;;;2.37;1.50;;;;;;;23.94;48.32;100275.59;4286321;28;21031;-51
2023/07/11 11:12:35;;;;;;;1.50;1.30;;;;;;;23.89;49.41;100276.28;4283126;28;20299;-48
2023/07/11 11:15:27;;;;;;;2.23;1.40;;;;;;;23.87;49.69;100279.28;4302650;28;20232;-51
2023/07/11 11:18:20;;;;;;;2.63;1.73;;;;;;;23.34;53.15;100277.41;4283071;28;20554;-45
2023/07/11 11:21:03;;;;;;;3.63;1.93;;;;;;;23.42;53.30;100277.91;4291650;28;22692;-48
2023/07/11 11:23:57;;;;;;;3.93;1.90;;;;;;;23.06;53.15;100274.19;4269300;28;20416;-49
2023/07/11 11:26:38;;;;;;;4.53;2.50;;;;;;;23.08;53.59;100274.75;4277555;28;20235;-49
2023/07/11 11:29:08;;;;;;;7.50;2.38;;;;;;;23.17;53.09;100274.44;4260378;28;22102;-69
2023/07/11 11:31:41;;;;;;;4.90;2.50;;;;;;;23.49;52.44;100275.03;4261027;28;20388;-66
2023/07/11 11:34:20;;;;;;;6.37;1.97;;;;;;;22.83;53.83;100271.31;4248281;28;23886;-67
2023/07/11 11:37:29;;;;;;;4.20;1.80;;;;;;;22.69;55.14;100281.69;4271917;28;22154;-66
2023/07/11 11:40:25;;;;;;;2.63;2.00;;;;;;;22.74;55.61;100279.06;4292023;28;20378;-66
2023/07/11 11:42:57;;;;;;;2.50;1.70;;;;;;;23.00;54.76;100282.53;4250199;28;20259;-68
2023/07/11 11:45:28;;;;;;;5.03;1.70;;;;;;;23.04;53.30;100269.94;4256622;28;20402;-63
2023/07/11 11:48:21;;;;;;;2.40;1.60;;;;;;;23.11;53.55;100273.47;4259870;28;22488;-66
2023/07/11 11:51:11;;;;;;;2.63;1.63;;;;;;;23.62;51.67;100270.38;4235041;28;20404;-66
2023/07/11 11:54:02;;;;;;;3.47;1.73;;;;;;;23.56;52.20;100269.41;4275880;28;20352;-68
2023/07/11 11:56:29;;;;;;;5.07;1.73;;;;;;;24.65;50.64;100269.97;4271375;28;20333;-65
2023/07/11 11:59:04;;;;;;;3.37;1.83;;;;;;;24.41;49.08;100256.19;4272944;28;20239;-64
2023/07/11 12:01:42;;;;;;;3.10;1.67;;;;;;;24.49;49.87;100257.75;4237815;28;20246;-66
2023/07/11 12:04:27;;;;;;;2.92;1.80;;;;;;;25.36;48.93;100247.50;4255953;28;20246;-66
2023/07/11 12:07:06;;;;;;;5.40;2.40;;;;;;;25.73;47.84;100254.50;4262853;28;20320;-69
2023/07/11 12:09:33;;;;;;;4.38;1.92;;;;;;;25.86;46.95;100245.84;4234787;28;20237;-67
2023/07/11 12:12:21;;;;;;;3.93;2.43;;;;;;;25.54;48.44;100252.00;4245086;28;21586;-65
2023/07/11 12:14:57;;;;;;;4.97;2.40;;;;;;;25.24;48.33;100247.59;4266321;28;20226;-70
2023/07/11 12:17:32;;;;;;;4.57;2.13;;;;;;;25.21;48.03;100255.56;4254349;28;20994;-66
2023/07/11 12:19:59;;;;;;;2.90;1.80;;;;;;;25.13;48.35;100245.72;4268348;28;20237;-66
2023/07/11 12:22:46;;;;;;;3.53;1.90;;;;;;;24.48;49.29;100250.53;4246677;28;20234;-67
2023/07/11 12:25:15;;;;;;;2.70;1.90;;;;;;;24.56;49.34;100252.91;4241281;28;20223;-74
2023/07/11 12:27:42;;;;;;;3.38;2.15;;;;;;;24.40;49.92;100257.25;4266903;28;20304;-77
2023/07/11 12:30:14;;;;;;;3.80;2.38;;;;;;;24.68;49.31;100247.38;4282517;28;20621;-70
2023/07/11 12:32:48;;;;;;;3.33;2.47;;;;;;;24.83;48.63;100247.66;4256157;28;20243;-75
2023/07/11 12:35:26;;;;;;;3.47;1.90;;;;;;;24.77;48.47;100239.50;4237324;28;20246;-73
2023/07/11 12:38:04;;;;;;;3.55;1.83;;;;;;;25.19;47.75;100241.09;4239838;28;20232;-75
2023/07/11 12:40:59;;;;;;;3.07;2.00;;;;;;;24.96;47.72;100229.88;4259915;28;22340;-73
2023/07/11 12:43:28;;;;;;;3.33;2.30;;;;;;;25.30;47.62;100232.72;4247705;28;20683;-71
2023/07/11 12:46:00;;;;;;;2.80;2.00;;;;;;;25.36;47.98;100233.66;4260667;28;20473;-74
2023/07/11 12:48:37;;;;;;;5.82;2.08;;;;;;;24.54;49.57;100244.00;4292995;28;22848;-74
2023/07/11 12:51:06;;;;;;;3.37;2.10;;;;;;;24.52;49.77;100238.72;4234996;28;22830;-73
2023/07/11 12:53:37;;;;;;;3.40;2.20;;;;;;;25.20;47.45;100227.00;4234328;28;20236;-74
2023/07/11 12:56:12;;;;;;;7.93;2.30;;;;;;;24.41;49.55;100238.75;4238031;28;20236;-72
2023/07/11 12:58:40;;;;;;;5.22;2.50;;;;;;;24.88;49.24;100223.94;4259918;28;20231;-74
2023/07/11 13:01:13;;;;;;;3.80;2.70;;;;;;;25.20;48.16;100231.72;4250738;28;22393;-73
2023/07/11 13:03:42;;;;;;;3.17;2.10;;;;;;;25.66;47.92;100228.88;4259464;28;21825;-72
2023/07/11 13:06:21;;;;;;;3.65;2.40;;;;;;;25.69;47.20;100220.91;4276071;28;21222;-73
2023/07/11 13:08:49;;;;;;;4.27;2.43;;;;;;;25.38;47.80;100222.31;4275590;28;20699;-70
2023/07/11 13:11:22;;;;;;;6.80;2.85;;;;;;;25.09;47.42;100219.59;4259496;28;21896;-70
2023/07/11 13:13:49;;;;;;;4.73;2.60;;;;;;;25.43;47.74;100223.28;4254808;28;20895;-71
2023/07/11 13:16:20;;;;;;;7.25;2.50;;;;;;;25.38;47.12;100230.63;4269085;28;20229;-71
2023/07/11 13:18:48;;;;;;;4.80;2.80;;;;;;;25.18;47.96;100228.34;4259978;28;22957;-70
2023/07/11 13:21:15;;;;;;;4.10;2.28;;;;;;;25.63;46.69;100227.47;4244914;28;20241;-71
2023/07/11 13:23:45;;;;;;;5.38;3.10;;;;;;;25.67;46.72;100227.78;4252951;28;23543;-74
2023/07/11 13:26:24;;;;;;;4.13;2.40;;;;;;;25.57;46.89;100228.47;4243170;28;21391;-69
2023/07/11 13:29:09;;;;;;;4.30;2.87;;;;;;;25.68;47.04;100221.16;4256559;28;20322;-72
2023/07/11 13:31:36;;;;;;;4.63;2.67;;;;;;;25.28;47.65;100218.28;4265453;28;20849;-73
2023/07/11 13:34:12;;;;;;;6.60;2.47;;;;;;;25.01;48.18;100223.59;4252578;28;20303;-73
2023/07/11 13:36:42;;;;;;;4.83;2.67;;;;;;;25.31;46.85;100220.56;4297180;28;20238;-74
2023/07/11 13:39:13;;;;;;;6.03;2.77;;;;;;;25.55;46.85;100222.34;4249069;28;25379;-70
2023/07/11 13:41:39;;;;;;;3.28;2.35;;;;;;;25.73;45.74;100218.47;4239051;28;20240;-69
2023/07/11 13:44:32;;;;;;;4.95;2.75;;;;;;;25.33;45.85;100212.00;4252886;28;20230;-68
2023/07/11 13:47:01;;;;;;;3.85;2.55;;;;;;;25.30;46.55;100212.50;4256196;28;20380;-73
2023/07/11 13:49:40;;;;;;;4.95;2.50;;;;;;;25.61;46.21;100213.88;4250567;28;21365;-72
2023/07/11 13:52:32;;;;;;;6.85;2.95;;;;;;;25.74;46.04;100209.06;4268396;28;21249;-71
2023/07/11 13:55:12;;;;;;;5.50;2.72;;;;;;;25.71;45.08;100210.41;4255123;28;21034;-71
2023/07/11 13:57:39;;;;;;;6.20;2.65;;;;;;;26.15;42.96;100212.44;4254841;28;20237;-71
2023/07/11 14:00:06;;;;;;;6.18;2.80;;;;;;;26.35;43.21;100205.47;4256959;28;20598;-73
2023/07/11 14:02:40;;;;;;;4.28;2.67;;;;;;;26.64;42.78;100205.25;4255855;28;20251;-74
2023/07/11 14:05:23;;;;;;;5.22;2.60;;;;;;;26.56;42.94;100210.16;4259835;28;20234;-73
2023/07/11 14:07:51;;;;;;;3.93;2.70;;;;;;;26.49;43.24;100209.53;4224732;28;20238;-78
2023/07/11 14:10:20;;;;;;;3.90;2.40;;;;;;;26.46;42.25;100201.75;4246509;28;20633;-73
2023/07/11 14:12:47;;;;;;;3.00;2.30;;;;;;;26.51;43.05;100187.91;4261149;28;20672;-74
2023/07/11 14:15:22;;;;;;;3.25;2.50;;;;;;;26.68;42.00;100198.94;4244945;28;20236;-71
2023/07/11 14:17:50;;;;;;;3.13;2.42;;;;;;;27.12;41.54;100197.16;4249444;28;20396;-75
2023/07/11 14:20:21;;;;;;;3.93;2.13;;;;;;;27.54;40.63;100198.38;4237853;28;20801;-75
2023/07/11 14:22:48;;;;;;;4.70;2.30;;;;;;;26.63;41.96;100196.09;4229645;28;20348;-76
2023/07/11 14:25:18;;;;;;;3.95;2.47;;;;;;;26.99;42.39;100195.66;4244865;28;21394;-74
2023/07/11 14:27:46;;;;;;;5.85;2.92;;;;;;;27.40;41.46;100197.97;4287189;28;20321;-76
2023/07/11 14:30:16;;;;;;;4.70;2.67;;;;;;;27.70;40.04;100197.38;4279693;28;22048;-75
2023/07/11 14:32:44;;;;;;;4.45;2.35;;;;;;;26.88;40.58;100194.72;4261400;28;21002;-72
2023/07/11 14:35:16;;;;;;;3.53;2.43;;;;;;;26.67;41.10;100180.59;4253135;28;20236;-76
2023/07/11 14:37:46;;;;;;;2.95;2.33;;;;;;;27.14;40.58;100181.06;4263821;28;20240;-73
2023/07/11 14:40:15;;;;;;;3.75;2.28;;;;;;;27.78;39.58;100190.47;4218474;28;20296;-74
2023/07/11 14:42:42;;;;;;;4.20;2.58;;;;;;;27.05;40.68;100192.66;4247198;28;20280;-73
2023/07/11 14:45:23;;;;;;;3.00;2.38;;;;;;;27.61;40.19;100193.41;4270562;28;20235;-74
2023/07/11 14:47:51;;;;;;;3.72;2.20;;;;;;;27.84;39.92;100186.63;4265197;28;20275;-75
2023/07/11 14:50:21;;;;;;;3.63;2.25;;;;;;;28.05;39.87;100195.94;4240421;28;21672;-72
2023/07/11 14:52:48;;;;;;;5.15;2.33;;;;;;;28.62;38.99;100197.03;4255312;28;20847;-73
2023/07/11 14:55:17;;;;;;;2.92;2.30;;;;;;;27.91;38.17;100190.00;4262080;28;20288;-73
2023/07/11 14:57:48;;;;;;;5.63;2.45;;;;;;;27.08;40.24;100188.50;4276810;28;25681;-72
2023/07/11 15:00:23;;;;;;;3.92;2.25;;;;;;;27.49;39.84;100183.34;4299603;28;20233;-72
2023/07/11 15:02:50;;;;;;;4.50;2.42;;;;;;;28.05;37.81;100181.16;4281452;28;21188;-72
2023/07/11 15:05:21;;;;;;;3.63;2.40;;;;;;;27.57;39.33;100181.97;4288133;28;20238;-71
2023/07/11 15:08:16;;;;;;;4.60;2.50;;;;;;;27.84;38.50;100178.28;4278845;28;20243;-73
2023/07/11 15:11:19;;;;;;;3.53;2.03;;;;;;;27.38;39.71;100180.72;4258882;28;20229;-76
2023/07/11 15:14:12;;;;;;;5.38;2.30;;;;;;;27.71;39.20;100179.59;4289349;28;20895;-75
2023/07/11 15:16:44;;;;;;;6.35;2.30;;;;;;;28.43;37.43;100179.13;4280595;28;20239;-72
2023/07/11 15:19:23;;;;;;;7.50;2.17;;;;;;;28.17;38.19;100180.97;4247370;28;20227;-74
2023/07/11 15:22:01;;;;;;;3.10;2.05;;;;;;;28.34;38.19;100177.97;4267524;28;20227;-75
2023/07/11 15:24:34;;;;;;;2.97;2.22;;;;;;;28.62;37.40;100168.31;4239140;28;20350;-72
2023/07/11 15:27:03;;;;;;;4.85;2.50;;;;;;;28.73;36.91;100169.22;4241494;28;20271;-76
2023/07/11 15:29:30;;;;;;;6.72;2.60;;;;;;;28.47;37.33;100166.34;4250328;28;20230;-74
2023/07/11 15:31:57;;;;;;;5.40;2.85;;;;;;;28.30;37.90;100170.19;4251420;28;21815;-73
2023/07/11 15:34:25;;;;;;;4.20;2.30;;;;;;;28.33;37.86;100171.59;4259110;28;20238;-75
2023/07/11 15:36:52;;;;;;;5.20;2.25;;;;;;;27.96;38.42;100175.28;4221333;28;20597;-73
2023/07/11 15:39:21;;;;;;;3.08;2.25;;;;;;;28.09;37.82;100160.91;4261925;28;21611;-74
2023/07/11 15:41:54;;;;;;;5.35;2.22;;;;;;;28.29;37.95;100173.22;4237524;28;25942;-73
2023/07/11 15:44:26;;;;;;;3.75;2.40;;;;;;;28.56;37.11;100163.84;4250507;28;20474;-73
2023/07/11 15:46:57;;;;;;;6.05;2.17;;;;;;;28.01;37.66;100157.78;4273309;28;20502;-74
2023/07/11 15:49:25;;;;;;;6.10;2.38;;;;;;;28.08;37.51;100166.75;4240658;28;20450;-75
2023/07/11 15:51:52;;;;;;;3.53;2.15;;;;;;;28.30;37.62;100164.63;4239348;28;20249;-74
2023/07/11 15:54:20;;;;;;;3.75;2.10;;;;;;;28.70;37.13;100156.66;4240804;28;20247;-70
2023/07/11 15:56:47;;;;;;;3.70;2.10;;;;;;;28.06;37.82;100160.63;4240029;28;20280;-73
2023/07/11 15:59:18;;;;;;;4.15;2.67;;;;;;;28.27;37.00;100165.16;4236225;28;20257;-77
2023/07/11 16:01:46;;;;;;;7.93;2.25;;;;;;;27.40;38.26;100164.63;4271113;28;20962;-73
2023/07/11 16:04:21;;;;;;;4.25;2.13;;;;;;;26.67;39.98;100163.09;4241823;28;21089;-75
2023/07/11 16:06:50;;;;;;;3.67;2.10;;;;;;;26.79;39.66;100166.56;4237560;28;20285;-73
2023/07/11 16:09:24;;;;;;;3.15;2.28;;;;;;;26.92;39.60;100164.50;4237747;28;26865;-75
2023/07/11 16:11:52;;;;;;;3.15;2.17;;;;;;;27.06;39.27;100165.75;4247703;28;22232;-76
2023/07/11 16:14:20;;;;;;;4.07;2.35;;;;;;;27.23;39.10;100159.22;4247965;28;23361;-76
2023/07/11 16:16:47;;;;;;;2.97;2.30;;;;;;;27.12;39.50;100172.16;4244496;28;20305;-74
2023/07/11 16:19:16;;;;;;;3.78;2.40;;;;;;;26.88;40.23;100156.69;4213921;28;20242;-77
2023/07/11 16:21:43;;;;;;;5.72;2.70;;;;;;;26.85;40.17;100161.91;4236281;28;20310;-74
2023/07/11 16:24:18;;;;;;;4.38;2.22;;;;;;;26.88;40.92;100161.41;4239339;28;20231;-74
2023/07/11 16:26:48;;;;;;;4.22;2.58;;;;;;;27.00;40.42;100161.25;4228448;28;21821;-75
2023/07/11 16:29:26;;;;;;;3.97;2.00;;;;;;;27.46;39.40;100164.41;4254719;28;21513;-77
2023/07/11 16:31:53;;;;;;;5.93;2.58;;;;;;;27.24;39.59;100164.50;4259311;28;20241;-74
2023/07/11 16:34:24;;;;;;;5.50;2.30;;;;;;;27.50;39.41;100160.00;4243924;28;20317;-76
2023/07/11 16:36:55;;;;;;;4.85;2.15;;;;;;;27.45;39.06;100164.66;4273391;28;20235;-77
2023/07/11 16:39:25;;;;;;;6.28;2.28;;;;;;;27.46;39.39;100150.50;4248040;28;21442;-77
2023/07/11 16:41:52;;;;;;;6.20;2.40;;;;;;;27.91;38.28;100139.94;4229116;28;21500;-74
2023/07/11 16:44:21;;;;;;;6.10;2.38;;;;;;;27.40;38.86;100151.53;4246997;28;20232;-73
2023/07/11 16:46:54;;;;;;;3.38;2.20;;;;;;;27.37;38.67;100152.09;4236797;28;20238;-75
2023/07/11 16:49:22;;;;;;;7.80;3.28;;;;;;;27.20;38.90;100147.50;4222339;28;20264;-75
2023/07/11 16:51:49;;;;;;;3.80;2.28;;;;;;;27.06;38.59;100149.06;4241347;28;20234;-77
2023/07/11 16:54:18;;;;;;;4.32;2.10;;;;;;;27.36;38.66;100156.78;4236271;28;20525;-75
2023/07/11 16:56:46;;;;;;;3.10;1.92;;;;;;;27.09;38.87;100153.25;4242219;28;22070;-74
2023/07/11 16:59:18;;;;;;;2.60;1.90;;;;;;;26.61;39.92;100141.94;4251352;28;20227;-75
2023/07/11 17:01:51;;;;;;;2.50;1.98;;;;;;;26.87;39.68;100149.44;4263426;28;20371;-73
2023/07/11 17:04:19;;;;;;;5.13;2.42;;;;;;;26.63;40.10;100153.59;4244925;28;21286;-75
2023/07/11 17:06:48;;;;;;;3.10;2.15;;;;;;;26.85;40.36;100148.03;4260157;28;20222;-76
2023/07/11 17:09:21;;;;;;;5.20;2.42;;;;;;;27.13;40.71;100144.13;4241336;28;22199;-74
2023/07/11 17:11:50;;;;;;;3.38;2.13;;;;;;;27.15;39.62;100147.44;4236927;28;20301;-78
2023/07/11 17:14:17;;;;;;;6.18;2.53;;;;;;;27.04;39.16;100143.75;4227389;28;22387;-75
2023/07/11 17:16:52;;;;;;;4.00;2.47;;;;;;;26.70;40.33;100151.47;4245224;28;20282;-75
2023/07/11 17:19:26;;;;;;;3.45;2.40;;;;;;;26.61;40.74;100145.53;4252658;28;20220;-77
2023/07/11 17:21:53;;;;;;;17.48;2.90;;;;;;;27.10;39.70;100146.59;4236034;28;20229;-76
2023/07/11 17:24:22;;;;;;;7.32;2.40;;;;;;;27.49;39.00;100144.41;4254267;28;20493;-73
2023/07/11 17:26:52;;;;;;;3.05;2.25;;;;;;;28.30;37.20;100153.47;4241322;28;20234;-74
2023/07/11 17:29:20;;;;;;;3.17;2.15;;;;;;;28.68;36.60;100142.16;4240873;28;20239;-72
2023/07/11 17:31:47;;;;;;;3.03;2.03;;;;;;;28.11;36.99;100142.00;4227811;28;20286;-73
2023/07/11 17:34:17;;;;;;;4.35;2.13;;;;;;;27.62;38.41;100145.03;4216833;28;25070;-73
2023/07/11 17:36:45;;;;;;;3.60;2.28;;;;;;;27.32;38.79;100143.69;4242270;28;22058;-74
2023/07/11 17:39:18;;;;;;;4.95;2.25;;;;;;;27.23;38.78;100142.53;4230896;28;20767;-75
2023/07/11 17:42:13;;;;;;;3.28;2.25;;;;;;;27.27;39.80;100146.44;4242488;28;20244;-73
2023/07/11 17:44:41;;;;;;;3.03;1.88;;;;;;;26.98;39.90;100146.78;4258024;28;20957;-71
2023/07/11 17:47:22;;;;;;;6.50;3.30;;;;;;;26.64;40.77;100149.72;4235405;28;21920;-74
2023/07/11 17:49:53;;;;;;;9.85;4.20;;;;;;;26.41;41.28;100140.59;4219918;28;20602;-72
2023/07/11 17:52:24;;;;;;;7.63;3.10;;;;;;;26.13;42.04;100150.00;4211878;28;20285;-74
2023/07/11 17:54:51;;;;;;;4.00;2.33;;;;;;;26.00;42.36;100140.09;4237543;28;20234;-75
2023/07/11 17:57:21;;;;;;;3.40;2.50;;;;;;;25.91;42.83;100142.47;4237533;28;20238;-76
2023/07/11 17:59:48;;;;;;;4.57;2.70;;;;;;;25.75;42.78;100149.75;4243753;28;21152;-73
2023/07/11 18:02:21;;;;;;;5.18;2.50;;;;;;;25.59;43.09;100151.47;4237688;28;23378;-74
2023/07/11 18:04:49;;;;;;;4.28;2.55;;;;;;;25.54;42.82;100140.28;4235303;28;22098;-74
2023/07/11 18:07:26;;;;;;;4.95;2.35;;;;;;;25.41;43.45;100138.72;4242909;28;21806;-77
2023/07/11 18:09:53;;;;;;;3.57;2.27;;;;;;;25.33;43.36;100144.66;4234412;28;20422;-75
2023/07/11 18:12:25;;;;;;;7.10;2.43;;;;;;;25.21;43.77;100139.22;4251632;28;20231;-73
2023/07/11 18:14:52;;;;;;;3.80;2.50;;;;;;;25.13;43.97;100144.09;4234948;28;20252;-71
2023/07/11 18:17:23;;;;;;;4.28;2.33;;;;;;;24.94;45.03;100143.47;4242725;28;20740;-71
2023/07/11 18:19:51;;;;;;;3.72;2.25;;;;;;;24.86;44.69;100143.03;4249166;28;20232;-70
2023/07/11 18:22:24;;;;;;;7.45;2.70;;;;;;;24.76;44.97;100146.47;4238949;28;20465;-69
2023/07/11 18:24:52;;;;;;;4.90;2.40;;;;;;;24.66;45.75;100136.88;4234870;28;20228;-74
2023/07/11 18:27:31;;;;;;;7.72;2.80;;;;;;;24.58;45.52;100141.94;4222987;28;22419;-71
2023/07/11 18:29:59;;;;;;;3.47;2.40;;;;;;;24.42;45.69;100144.44;4254489;28;20292;-73
2023/07/11 18:32:38;;;;;;;4.32;2.88;;;;;;;24.33;46.80;100143.13;4232227;28;21258;-74
2023/07/11 18:35:09;;;;;;;7.88;3.92;;;;;;;24.20;47.55;100145.09;4219518;28;20422;-72
2023/07/11 18:37:36;;;;;;;6.03;3.42;;;;;;;24.08;47.82;100149.84;4227861;28;20797;-76
2023/07/11 18:40:10;;;;;;;6.43;2.80;;;;;;;23.90;49.62;100135.06;4223999;28;20239;-72
2023/07/11 18:42:37;;;;;;;9.02;3.00;;;;;;;23.78;50.45;100150.84;4221423;28;21499;-75
2023/07/11 18:45:04;;;;;;;5.28;3.28;;;;;;;23.67;50.44;100149.75;4239183;28;21594;-69
2023/07/11 18:47:32;;;;;;;3.92;2.35;;;;;;;23.50;51.43;100152.38;4235745;28;20235;-72
2023/07/11 18:49:59;;;;;;;6.47;2.70;;;;;;;23.33;50.87;100148.69;4216096;28;20227;-73
2023/07/11 18:52:28;;;;;;;4.97;2.40;;;;;;;23.21;51.32;100155.03;4240643;28;20230;-69
2023/07/11 18:54:57;;;;;;;5.60;3.33;;;;;;;23.02;52.51;100151.47;4241290;28;20418;-67
2023/07/11 18:57:27;;;;;;;5.23;3.20;;;;;;;22.95;53.06;100148.84;4230491;28;20956;-67
2023/07/11 18:59:55;;;;;;;7.27;3.53;;;;;;;22.81;53.11;100150.09;4235684;28;21676;-66
2023/07/11 19:02:23;;;;;;;4.40;3.00;;;;;;;22.71;53.51;100152.59;4214330;28;20225;-66
2023/07/11 19:04:52;;;;;;;4.17;2.90;;;;;;;22.66;53.78;100156.06;4227988;28;20247;-48
2023/07/11 19:07:21;;;;;;;8.00;3.23;;;;;;;22.63;54.00;100149.09;4227231;28;20969;-45
2023/07/11 19:09:52;;;;;;;7.33;3.27;;;;;;;22.50;54.40;100149.31;4233889;28;20230;-48
2023/07/11 19:12:35;;;;;;;4.93;3.20;;;;;;;22.39;54.40;100148.19;4228595;28;20231;-45
2023/07/11 19:15:09;;;;;;;7.27;3.13;;;;;;;22.29;54.38;100156.13;4232203;28;20242;-48
2023/07/11 19:17:39;;;;;;;9.60;2.90;;;;;;;22.24;54.75;100153.22;4227130;28;20235;-48
2023/07/11 19:20:16;;;;;;;7.37;3.80;;;;;;;22.10;55.76;100156.13;4217344;28;20234;-50
2023/07/11 19:22:47;;;;;;;6.10;3.40;;;;;;;22.07;55.50;100155.75;4219137;28;20235;-50
2023/07/11 19:25:15;;;;;;;13.03;3.87;;;;;;;21.88;56.61;100157.66;4236714;28;20251;-46
2023/07/11 19:27:44;;;;;;;6.53;3.23;;;;;;;21.66;56.82;100158.97;4228588;28;20223;-50
2023/07/11 19:30:26;;;;;;;9.27;3.43;;;;;;;21.62;56.90;100154.16;4233715;28;20232;-50